Terminal Aerodrome Forecast
Issued by NWS

Home | Current Version | Previous Version | Text Only | Print | Product List | Glossary On
Versions: 1 2 3 4 5 6 7 8 9 10 11 12 13 14 15 16
000
FTUS42 KFFC 260529
TAFRYY
TAF
KRYY 260529Z 2606/2706 23008KT P6SM FEW010 SCT025 BKN100
     FM261000 24008KT 5SM BR BKN012 BKN035
     FM261300 28010KT P6SM BKN020
     FM261600 29014G24KT P6SM SCT050
     FM270200 32008KT P6SM FEW250
      AMD NOT SKED TIL 261200=

USA.gov is the U.S. government's official web portal to all federal, state and local government web resources and services.